Time;durP1;ratioP1;P1;durP2;ratioP2;P2;SDS_P1;SDS_P2;PMS_P1;PMS_P2;Temp;Humidity;BMP_temperature;BMP_pressure;BME280_temperature;BME280_humidity;BME280_pressure;Samples;Min_cycle;Max_cycle;Signal;HPM_P1;HPM_P2
2021/12/30 00:01:19;;;;;;;33.67;5.38;;;;;;;12.16;100.00;101195.44;5278843;28;20095;-74
2021/12/30 00:03:50;;;;;;;37.88;5.85;;;;;;;12.19;100.00;101189.72;5264846;28;20031;-74
2021/12/30 00:06:22;;;;;;;32.88;5.03;;;;;;;12.22;100.00;101185.00;5264634;28;20447;-74
2021/12/30 00:08:53;;;;;;;32.05;5.60;;;;;;;12.22;100.00;101187.72;5267432;28;20032;-74
2021/12/30 00:11:24;;;;;;;34.05;6.03;;;;;;;12.30;100.00;101182.31;5275008;28;20027;-74
2021/12/30 00:13:56;;;;;;;41.55;5.82;;;;;;;12.35;100.00;101185.31;5285251;28;20477;-74
2021/12/30 00:16:26;;;;;;;31.65;6.32;;;;;;;12.36;100.00;101182.47;5285119;28;20432;-74
2021/12/30 00:18:57;;;;;;;26.45;5.22;;;;;;;12.40;100.00;101178.44;5266386;27;20024;-75
2021/12/30 00:21:27;;;;;;;32.92;5.13;;;;;;;12.44;100.00;101184.31;5277555;28;20027;-74
2021/12/30 00:23:58;;;;;;;29.48;5.30;;;;;;;12.42;100.00;101180.97;5272122;28;20120;-74
2021/12/30 00:26:28;;;;;;;27.65;4.82;;;;;;;12.44;100.00;101179.75;5271598;28;20492;-73
2021/12/30 00:28:59;;;;;;;31.83;5.05;;;;;;;12.46;100.00;101179.63;5276717;28;20126;-74
2021/12/30 00:31:30;;;;;;;29.77;4.88;;;;;;;12.46;100.00;101182.31;5264149;28;20016;-73
2021/12/30 00:34:01;;;;;;;28.83;5.03;;;;;;;12.47;100.00;101183.97;5272894;28;20158;-74
2021/12/30 00:36:31;;;;;;;32.58;5.13;;;;;;;12.49;100.00;101192.72;5282314;28;20019;-74
2021/12/30 00:39:03;;;;;;;28.35;4.75;;;;;;;12.53;100.00;101193.22;5263641;28;20068;-73
2021/12/30 00:41:33;;;;;;;23.92;4.78;;;;;;;12.58;100.00;101191.69;5267081;28;20047;-73
2021/12/30 00:44:04;;;;;;;22.95;4.95;;;;;;;12.59;100.00;101196.06;5273524;27;20568;-73
2021/12/30 00:46:35;;;;;;;28.40;5.03;;;;;;;12.58;100.00;101197.06;5263400;28;20024;-73
2021/12/30 00:49:05;;;;;;;23.95;4.70;;;;;;;12.61;100.00;101194.06;5276969;28;20395;-74
2021/12/30 00:51:36;;;;;;;32.95;6.05;;;;;;;12.59;100.00;101198.75;5267564;28;20074;-75
2021/12/30 00:54:07;;;;;;;22.67;4.22;;;;;;;12.61;100.00;101204.81;5278421;28;20024;-75
2021/12/30 00:56:37;;;;;;;19.58;4.00;;;;;;;12.63;100.00;101205.47;5276384;27;20084;-75
2021/12/30 00:59:08;;;;;;;29.35;5.20;;;;;;;12.62;100.00;101211.88;5263550;28;20119;-75
2021/12/30 01:01:38;;;;;;;19.33;4.20;;;;;;;12.62;100.00;101209.19;5263865;28;20020;-75
2021/12/30 01:04:09;;;;;;;19.27;4.03;;;;;;;12.63;100.00;101210.03;5267383;28;20476;-75
2021/12/30 01:06:40;;;;;;;22.33;4.38;;;;;;;12.66;100.00;101215.91;5274419;28;20023;-75
2021/12/30 01:09:10;;;;;;;19.55;3.97;;;;;;;12.68;100.00;101216.56;5279276;28;20432;-75
2021/12/30 01:11:41;;;;;;;18.52;5.03;;;;;;;12.69;100.00;101212.88;5275796;28;20491;-75
2021/12/30 01:17:11;;;;;;;17.05;4.15;;;;;;;12.73;100.00;101217.91;5278874;28;20028;-75
2021/12/30 01:19:42;;;;;;;19.75;3.63;;;;;;;12.74;100.00;101211.50;5282911;28;20027;-75
2021/12/30 01:22:16;;;;;;;21.58;4.13;;;;;;;12.73;100.00;101216.06;5265281;28;20016;-75
2021/12/30 01:24:48;;;;;;;16.23;3.28;;;;;;;12.72;100.00;101216.25;5262867;28;20016;-75
2021/12/30 01:27:20;;;;;;;19.08;3.42;;;;;;;12.74;100.00;101224.97;5262729;28;20117;-75
2021/12/30 01:29:51;;;;;;;17.48;3.40;;;;;;;12.76;100.00;101223.81;5263129;28;20028;-75
2021/12/30 01:32:22;;;;;;;16.60;3.13;;;;;;;12.75;100.00;101224.81;5263236;28;20035;-75
2021/12/30 01:34:53;;;;;;;14.63;3.33;;;;;;;12.73;100.00;101223.31;5265596;28;20032;-76
2021/12/30 01:37:24;;;;;;;16.50;3.20;;;;;;;12.74;100.00;101222.28;5284395;27;20110;-75
2021/12/30 01:39:54;;;;;;;12.45;2.35;;;;;;;12.70;100.00;101225.34;5268450;28;20077;-75
2021/12/30 01:42:25;;;;;;;15.90;2.90;;;;;;;12.72;100.00;101227.00;5268047;28;20031;-75
2021/12/30 01:44:55;;;;;;;16.52;2.88;;;;;;;12.75;100.00;101226.66;5281190;28;20024;-74
2021/12/30 01:47:26;;;;;;;11.00;2.33;;;;;;;12.75;100.00;101229.34;5282139;28;20024;-75
2021/12/30 01:49:56;;;;;;;11.75;2.47;;;;;;;12.78;100.00;101226.31;5275177;28;20350;-76
2021/12/30 01:52:27;;;;;;;11.02;2.33;;;;;;;12.76;100.00;101215.72;5283844;28;20072;-76
2021/12/30 01:54:58;;;;;;;10.65;2.58;;;;;;;12.79;100.00;101219.91;5288410;28;20373;-76
2021/12/30 01:57:28;;;;;;;6.25;2.05;;;;;;;12.84;100.00;101222.94;5272486;28;20024;-75
2021/12/30 02:00:00;;;;;;;9.20;2.00;;;;;;;12.81;100.00;101220.59;5267565;28;20028;-75
2021/12/30 02:02:32;;;;;;;8.85;1.92;;;;;;;12.79;100.00;101226.13;5285045;28;20020;-75
2021/12/30 02:05:03;;;;;;;4.82;2.00;;;;;;;12.85;100.00;101224.59;5278381;28;20290;-75
2021/12/30 02:07:45;;;;;;;9.98;1.80;;;;;;;12.84;100.00;101223.78;5283723;28;20039;-75
2021/12/30 02:10:16;;;;;;;5.75;1.90;;;;;;;12.88;100.00;101227.81;5268338;28;20024;-75
2021/12/30 02:12:47;;;;;;;6.97;1.50;;;;;;;12.91;100.00;101223.94;5276150;28;20020;-74
2021/12/30 02:15:19;;;;;;;8.10;1.95;;;;;;;12.95;100.00;101231.50;5286393;28;20105;-74
2021/12/30 02:18:05;;;;;;;7.72;1.55;;;;;;;12.93;100.00;101224.59;5269042;28;20035;-76
2021/12/30 02:20:52;;;;;;;5.95;1.15;;;;;;;12.92;100.00;101222.94;5287481;28;20023;-75
2021/12/30 02:23:27;;;;;;;3.53;1.85;;;;;;;12.95;100.00;101218.03;5273233;28;20492;-75
2021/12/30 02:26:08;;;;;;;6.80;1.25;;;;;;;12.98;100.00;101230.31;5268262;28;20054;-75
2021/12/30 02:28:49;;;;;;;6.40;0.93;;;;;;;12.93;100.00;101220.06;5271932;28;20020;-75
2021/12/30 02:31:24;;;;;;;4.20;1.17;;;;;;;12.93;100.00;101221.91;5268644;28;20043;-75
2021/12/30 02:33:55;;;;;;;2.40;0.80;;;;;;;12.92;100.00;101229.16;5279952;27;20035;-75
2021/12/30 02:36:32;;;;;;;2.85;0.88;;;;;;;12.97;100.00;101228.63;5281004;28;20352;-75
2021/12/30 02:39:07;;;;;;;2.47;0.90;;;;;;;12.99;100.00;101236.53;5274785;28;20031;-76
2021/12/30 02:41:38;;;;;;;;;;;;;;;12.99;100.00;101239.22;5267751;28;20493;-76
2021/12/30 02:44:10;;;;;;;6.30;0.80;;;;;;;13.03;100.00;101246.78;5266736;28;19915;-76
2021/12/30 02:46:41;;;;;;;2.47;0.70;;;;;;;13.00;100.00;101236.34;5273728;28;20016;-76
2021/12/30 02:49:11;;;;;;;2.00;0.70;;;;;;;13.03;100.00;101233.31;5286873;28;20058;-75
2021/12/30 02:51:42;;;;;;;4.85;0.80;;;;;;;13.05;100.00;101234.00;5269400;28;20027;-75
2021/12/30 02:54:13;;;;;;;2.58;0.90;;;;;;;13.06;100.00;101242.94;5280374;28;20024;-75
2021/12/30 02:57:00;;;;;;;2.58;0.80;;;;;;;13.06;100.00;101243.75;5266393;28;20078;-76
2021/12/30 02:59:30;;;;;;;2.05;0.80;;;;;;;13.10;100.00;101241.53;5286090;28;20395;-75
2021/12/30 03:02:02;;;;;;;1.65;0.60;;;;;;;13.11;100.00;101254.84;5287444;28;20043;-75
2021/12/30 03:04:33;;;;;;;3.55;0.80;;;;;;;13.18;100.00;101257.69;5264910;28;20020;-76
2021/12/30 03:07:04;;;;;;;0.80;0.70;;;;;;;13.19;100.00;101264.75;5269584;28;20042;-76
2021/12/30 03:09:35;;;;;;;1.98;1.00;;;;;;;13.22;100.00;101267.16;5274541;28;20081;-75
2021/12/30 03:12:06;;;;;;;1.23;0.93;;;;;;;13.22;100.00;101261.75;5273282;27;20032;-76
2021/12/30 03:14:56;;;;;;;2.75;0.90;;;;;;;13.26;100.00;101271.19;5287201;28;20450;-75
2021/12/30 03:17:27;;;;;;;3.65;1.60;;;;;;;13.26;100.00;101270.34;5287234;28;20023;-76
2021/12/30 03:19:58;;;;;;;2.03;0.90;;;;;;;13.27;100.00;101272.00;5286901;28;20022;-76
2021/12/30 03:22:28;;;;;;;0.77;0.70;;;;;;;13.31;100.00;101271.50;5273742;28;20102;-76
2021/12/30 03:24:59;;;;;;;1.70;0.70;;;;;;;13.34;100.00;101273.81;5272070;28;20343;-75
2021/12/30 03:27:30;;;;;;;0.95;0.90;;;;;;;13.37;100.00;101278.03;5275154;28;20392;-75
2021/12/30 03:30:05;;;;;;;2.55;1.00;;;;;;;13.40;100.00;101291.16;5283870;28;20024;-75
2021/12/30 03:32:35;;;;;;;1.70;0.85;;;;;;;13.42;100.00;101286.44;5265874;28;20121;-76
2021/12/30 03:35:07;;;;;;;3.65;1.00;;;;;;;13.42;100.00;101286.44;5279490;28;20020;-76
2021/12/30 03:37:38;;;;;;;2.92;1.05;;;;;;;13.40;100.00;101283.94;5278103;28;20530;-76
2021/12/30 03:40:13;;;;;;;1.10;0.90;;;;;;;13.45;100.00;101286.06;5272434;27;20353;-76
2021/12/30 03:42:44;;;;;;;2.33;0.77;;;;;;;13.46;100.00;101304.78;5286450;28;20019;-75
2021/12/30 03:45:15;;;;;;;1.15;0.93;;;;;;;13.55;100.00;101291.25;5278619;27;20035;-76
2021/12/30 03:47:49;;;;;;;2.85;0.85;;;;;;;13.54;100.00;101285.03;5281764;28;20027;-75
2021/12/30 03:50:24;;;;;;;1.48;0.85;;;;;;;13.57;100.00;101298.19;5286853;28;20059;-75
2021/12/30 03:52:57;;;;;;;1.55;1.02;;;;;;;13.57;100.00;101294.66;5276736;28;20023;-75
2021/12/30 03:55:31;;;;;;;0.70;0.60;;;;;;;13.62;100.00;101284.19;5286696;27;20038;-75
2021/12/30 03:58:02;;;;;;;1.75;0.45;;;;;;;13.66;100.00;101285.50;5264260;28;20373;-75
2021/12/30 04:00:36;;;;;;;1.85;0.60;;;;;;;13.70;100.00;101295.78;5278658;28;20095;-75
2021/12/30 04:03:07;;;;;;;2.22;0.63;;;;;;;13.72;100.00;101296.41;5265459;28;20024;-75
2021/12/30 04:05:37;;;;;;;1.27;0.75;;;;;;;13.78;100.00;101302.97;5268417;28;20016;-76
2021/12/30 04:08:09;;;;;;;0.35;0.35;;;;;;;13.79;100.00;101293.84;5275823;27;20028;-75
2021/12/30 04:10:39;;;;;;;1.25;0.40;;;;;;;13.82;100.00;101276.50;5269495;28;20535;-75
2021/12/30 04:13:10;;;;;;;0.45;0.38;;;;;;;13.78;100.00;101278.69;5286260;28;20119;-76
2021/12/30 04:15:40;;;;;;;0.73;0.57;;;;;;;13.84;100.00;101285.22;5266611;28;20028;-76
2021/12/30 04:18:11;;;;;;;0.82;0.40;;;;;;;13.87;100.00;101295.69;5264797;28;20039;-75
2021/12/30 04:20:42;;;;;;;0.80;0.50;;;;;;;13.85;100.00;101297.69;5263517;28;20016;-74
2021/12/30 04:23:13;;;;;;;0.30;0.30;;;;;;;13.89;100.00;101310.66;5265199;28;20035;-75
2021/12/30 04:25:43;;;;;;;0.40;0.25;;;;;;;13.89;100.00;101317.91;5271822;28;20028;-75
2021/12/30 04:28:14;;;;;;;0.30;0.30;;;;;;;13.87;100.00;101309.16;5270000;28;20031;-76
2021/12/30 04:30:44;;;;;;;0.25;0.22;;;;;;;13.89;100.00;101328.69;5263478;28;20099;-75
2021/12/30 04:33:15;;;;;;;1.00;0.40;;;;;;;13.90;100.00;101323.13;5268261;28;20114;-75
2021/12/30 04:35:45;;;;;;;0.52;0.38;;;;;;;13.89;100.00;101317.91;5274715;28;20023;-75
2021/12/30 04:38:16;;;;;;;2.08;0.32;;;;;;;13.91;100.00;101327.53;5265113;28;20028;-76
2021/12/30 04:40:46;;;;;;;0.20;0.20;;;;;;;13.93;100.00;101321.94;5267659;28;20031;-76
2021/12/30 04:43:17;;;;;;;0.20;0.20;;;;;;;13.89;100.00;101326.84;5278002;28;20028;-75
2021/12/30 04:45:48;;;;;;;2.92;0.30;;;;;;;13.93;100.00;101324.63;5278181;28;20069;-75
2021/12/30 04:48:19;;;;;;;0.93;0.50;;;;;;;13.90;100.00;101336.59;5278247;28;20024;-76
2021/12/30 04:50:50;;;;;;;0.43;0.20;;;;;;;13.88;100.00;101329.72;5264268;28;20027;-75
2021/12/30 04:53:21;;;;;;;1.08;0.35;;;;;;;13.90;100.00;101339.28;5282384;28;20072;-75
2021/12/30 04:55:52;;;;;;;0.80;0.25;;;;;;;13.89;100.00;101331.41;5282658;28;20042;-75
2021/12/30 04:58:22;;;;;;;0.70;0.30;;;;;;;13.88;100.00;101335.13;5264166;28;20400;-75
2021/12/30 05:00:53;;;;;;;2.53;0.40;;;;;;;13.89;100.00;101344.88;5281381;28;20019;-77
2021/12/30 05:03:23;;;;;;;0.50;0.30;;;;;;;13.86;100.00;101339.84;5284650;28;20039;-75
2021/12/30 05:05:55;;;;;;;15.70;8.13;;;;;;;13.85;100.00;101344.38;5284351;28;20540;-76
2021/12/30 05:08:26;;;;;;;9.05;7.57;;;;;;;13.87;100.00;101360.41;5285284;28;20027;-76
2021/12/30 05:10:57;;;;;;;27.88;20.67;;;;;;;13.86;100.00;101364.13;5264407;28;20024;-76
2021/12/30 05:13:27;;;;;;;43.75;22.35;;;;;;;13.84;100.00;101363.44;5276900;28;20028;-76
2021/12/30 05:15:58;;;;;;;53.80;26.58;;;;;;;13.86;100.00;101359.56;5284457;28;20024;-76
2021/12/30 05:18:31;;;;;;;28.83;12.68;;;;;;;13.86;100.00;101366.81;5270621;27;20497;-77
2021/12/30 05:21:05;;;;;;;416.73;208.90;;;;;;;13.83;100.00;101368.00;5285323;28;20020;-76
2021/12/30 05:23:35;;;;;;;63.35;31.20;;;;;;;13.84;100.00;101360.75;5285098;27;21453;-76
2021/12/30 05:26:06;;;;;;;103.80;62.10;;;;;;;13.85;100.00;101352.47;5274344;28;20081;-75
2021/12/30 05:28:37;;;;;;;47.28;24.60;;;;;;;13.83;100.00;101353.69;5277176;28;20432;-76
2021/12/30 05:31:07;;;;;;;3.00;2.05;;;;;;;13.86;100.00;101356.03;5263707;28;20541;-76
2021/12/30 05:33:38;;;;;;;4.03;2.20;;;;;;;13.86;100.00;101350.66;5269560;28;20083;-76
2021/12/30 05:36:08;;;;;;;6.18;5.60;;;;;;;13.86;100.00;101364.13;5284902;28;20034;-77
2021/12/30 05:38:39;;;;;;;0.65;0.20;;;;;;;13.81;100.00;101361.94;5271065;28;20548;-76
2021/12/30 05:41:10;;;;;;;1.50;0.73;;;;;;;13.82;100.00;101371.72;5284702;28;20076;-76
2021/12/30 05:43:40;;;;;;;0.57;0.57;;;;;;;13.80;100.00;101372.91;5284792;28;20027;-75
2021/12/30 05:46:10;;;;;;;2.35;1.60;;;;;;;13.83;100.00;101377.94;5284592;28;20107;-75
2021/12/30 05:48:41;;;;;;;1.50;0.88;;;;;;;13.85;100.00;101378.59;5285155;28;20073;-76
2021/12/30 05:51:11;;;;;;;1.13;0.63;;;;;;;13.82;100.00;101378.97;5270709;28;20028;-76
2021/12/30 05:53:42;;;;;;;1.55;0.75;;;;;;;13.85;100.00;101394.78;5263816;28;20066;-76
2021/12/30 05:56:12;;;;;;;2.42;1.73;;;;;;;13.84;100.00;101385.03;5276706;28;20477;-75
2021/12/30 05:58:43;;;;;;;1.10;0.80;;;;;;;13.85;100.00;101381.28;5263408;28;20024;-75
2021/12/30 06:01:13;;;;;;;4.25;0.55;;;;;;;13.88;100.00;101383.66;5263633;28;20549;-75
2021/12/30 06:03:44;;;;;;;2.47;2.28;;;;;;;13.86;100.00;101369.53;5278000;28;20095;-76
2021/12/30 06:06:14;;;;;;;1.35;0.47;;;;;;;13.85;100.00;101379.44;5284807;28;20051;-75
2021/12/30 06:08:45;;;;;;;1.55;0.60;;;;;;;13.85;100.00;101375.91;5268798;28;20103;-75
2021/12/30 06:11:15;;;;;;;1.83;0.70;;;;;;;13.80;100.00;101371.03;5272257;28;20024;-74
2021/12/30 06:13:46;;;;;;;2.10;0.60;;;;;;;13.81;100.00;101375.44;5267761;28;20077;-75
2021/12/30 06:16:16;;;;;;;2.65;0.40;;;;;;;13.80;100.00;101372.91;5263467;28;20027;-75
2021/12/30 06:18:47;;;;;;;3.90;0.60;;;;;;;13.81;100.00;101388.09;5277156;28;20033;-76
2021/12/30 06:21:17;;;;;;;7.20;4.13;;;;;;;13.83;100.00;101380.66;5263667;28;20358;-77
2021/12/30 06:23:48;;;;;;;2.50;1.67;;;;;;;13.85;100.00;101375.91;5269898;28;20024;-74
2021/12/30 06:26:18;;;;;;;2.63;2.13;;;;;;;13.87;100.00;101384.69;5273959;28;20026;-74
2021/12/30 06:28:49;;;;;;;1.85;0.50;;;;;;;13.80;100.00;101387.22;5283126;28;20103;-74
2021/12/30 06:31:19;;;;;;;2.55;0.50;;;;;;;13.83;100.00;101399.53;5282838;28;20249;-74
2021/12/30 06:33:50;;;;;;;0.80;0.38;;;;;;;13.80;100.00;101383.69;5288892;28;20033;-75
2021/12/30 06:36:21;;;;;;;2.25;1.38;;;;;;;13.80;100.00;101391.78;5288581;28;20028;-75
2021/12/30 06:38:52;;;;;;;1.13;0.77;;;;;;;13.81;100.00;101388.91;5278350;28;20046;-74
2021/12/30 06:41:22;;;;;;;0.73;0.32;;;;;;;13.84;100.00;101393.09;5284581;28;20020;-75
2021/12/30 06:43:53;;;;;;;4.78;3.72;;;;;;;13.86;100.00;101397.31;5288817;28;20088;-75
2021/12/30 06:46:24;;;;;;;2.90;2.30;;;;;;;13.86;100.00;101399.19;5275303;28;20042;-74
2021/12/30 06:48:54;;;;;;;2.00;1.25;;;;;;;13.87;100.00;101399.00;5277074;28;20028;-74
2021/12/30 06:51:27;;;;;;;7.00;5.47;;;;;;;13.86;100.00;101404.59;5283029;28;20024;-74
2021/12/30 06:53:58;;;;;;;23.67;13.20;;;;;;;13.84;100.00;101409.28;5289139;28;20015;-74
2021/12/30 06:56:28;;;;;;;5.13;1.40;;;;;;;13.83;100.00;101411.16;5288762;28;20022;-75
2021/12/30 06:58:59;;;;;;;11.25;9.82;;;;;;;13.84;100.00;101425.47;5287319;28;20027;-75
2021/12/30 07:01:30;;;;;;;0.95;0.85;;;;;;;13.85;100.00;101432.53;5277799;28;20019;-75
2021/12/30 07:04:00;;;;;;;1.05;0.93;;;;;;;13.88;100.00;101438.44;5275584;28;20028;-75
2021/12/30 07:06:31;;;;;;;1.45;0.60;;;;;;;13.91;100.00;101437.28;5289185;28;20019;-73
2021/12/30 07:09:02;;;;;;;6.63;3.17;;;;;;;13.88;100.00;101441.13;5283753;28;20143;-74
2021/12/30 07:11:32;;;;;;;4.85;3.20;;;;;;;13.87;100.00;101439.47;5267705;28;20101;-73
2021/12/30 07:14:03;;;;;;;2.10;1.70;;;;;;;13.89;100.00;101433.88;5267101;28;20051;-74
2021/12/30 07:16:33;;;;;;;5.28;4.22;;;;;;;13.91;100.00;101440.81;5267334;28;20046;-74
2021/12/30 07:19:04;;;;;;;4.05;1.77;;;;;;;13.88;100.00;101438.44;5280831;28;20050;-73
2021/12/30 07:21:34;;;;;;;2.70;2.05;;;;;;;13.89;100.00;101439.28;5280577;28;20016;-74
2021/12/30 07:24:05;;;;;;;4.03;2.17;;;;;;;13.92;100.00;101441.63;5287532;28;20020;-74
2021/12/30 07:26:36;;;;;;;4.18;1.95;;;;;;;13.91;100.00;101450.75;5273108;28;20043;-74
2021/12/30 07:29:06;;;;;;;4.22;1.10;;;;;;;13.86;100.00;101448.56;5278498;28;20024;-74
2021/12/30 07:31:37;;;;;;;1.95;1.48;;;;;;;13.83;100.00;101458.84;5268781;28;20118;-74
2021/12/30 07:34:07;;;;;;;5.63;2.60;;;;;;;13.85;100.00;101470.28;5286994;28;20092;-75
2021/12/30 07:36:38;;;;;;;4.60;2.28;;;;;;;13.80;100.00;101468.13;5268875;28;20016;-74
2021/12/30 07:39:09;;;;;;;3.63;0.90;;;;;;;13.82;100.00;101476.06;5265772;28;20385;-75
2021/12/30 07:41:39;;;;;;;2.38;1.67;;;;;;;13.88;100.00;101478.06;5284959;28;20102;-74
2021/12/30 07:44:10;;;;;;;1.42;1.13;;;;;;;13.83;100.00;101477.72;5273948;28;20441;-74
2021/12/30 07:46:41;;;;;;;3.00;1.40;;;;;;;13.82;100.00;101482.28;5285215;28;20068;-74
2021/12/30 07:49:11;;;;;;;2.97;1.20;;;;;;;13.84;100.00;101479.41;5272339;28;20020;-74
2021/12/30 07:51:42;;;;;;;4.15;1.20;;;;;;;13.88;100.00;101487.00;5282411;28;20027;-74
2021/12/30 07:54:12;;;;;;;2.35;1.20;;;;;;;13.85;100.00;101491.88;5284085;28;20031;-73
2021/12/30 07:56:43;;;;;;;5.45;2.22;;;;;;;13.87;100.00;101495.25;5265686;28;20020;-74
2021/12/30 07:59:13;;;;;;;2.75;2.30;;;;;;;13.87;100.00;101497.97;5278688;28;20505;-74
2021/12/30 08:01:44;;;;;;;25.65;14.38;;;;;;;13.90;100.00;101495.75;5262415;28;20139;-74
2021/12/30 08:04:14;;;;;;;5.22;2.65;;;;;;;13.88;100.00;101503.16;5267300;28;20031;-73
2021/12/30 08:06:45;;;;;;;4.25;2.05;;;;;;;13.88;100.00;101491.53;5284651;27;20028;-74
2021/12/30 08:09:15;;;;;;;6.78;1.92;;;;;;;13.88;100.00;101496.94;5287988;27;20026;-74
2021/12/30 08:11:46;;;;;;;4.18;2.17;;;;;;;13.87;100.00;101508.75;5292852;27;20102;-74
2021/12/30 08:14:16;;;;;;;4.90;2.28;;;;;;;13.87;100.00;101512.28;5293343;27;20059;-74
2021/12/30 08:16:47;;;;;;;5.60;2.72;;;;;;;13.91;100.00;101502.84;5300013;27;20110;-74
2021/12/30 08:19:17;;;;;;;4.82;2.38;;;;;;;13.91;100.00;101512.78;5289516;27;20015;-74
2021/12/30 08:21:48;;;;;;;6.18;3.85;;;;;;;13.93;100.00;101514.28;5298776;27;20380;-73
2021/12/30 08:24:18;;;;;;;6.05;2.25;;;;;;;13.94;100.00;101521.34;5294578;27;20019;-74
2021/12/30 08:26:49;;;;;;;7.32;3.58;;;;;;;13.96;100.00;101523.91;5295095;27;20092;-73
2021/12/30 08:29:21;;;;;;;12.75;2.13;;;;;;;13.94;100.00;101523.22;5301448;27;20034;-73
2021/12/30 08:31:52;;;;;;;6.63;1.60;;;;;;;13.96;100.00;101527.44;5292945;27;20059;-74
2021/12/30 08:34:23;;;;;;;8.05;1.67;;;;;;;13.98;100.00;101533.50;5287259;27;20052;-74
2021/12/30 08:36:53;;;;;;;5.30;1.60;;;;;;;14.00;100.00;101530.63;5291277;27;20392;-74
2021/12/30 08:39:24;;;;;;;7.47;1.75;;;;;;;14.02;100.00;101534.00;5293273;27;20023;-74
2021/12/30 08:41:56;;;;;;;11.32;2.13;;;;;;;13.99;100.00;101539.72;5289692;27;20016;-74
2021/12/30 08:44:27;;;;;;;7.32;1.63;;;;;;;14.04;100.00;101536.50;5284304;27;20232;-74
2021/12/30 08:46:57;;;;;;;7.88;2.15;;;;;;;14.05;100.00;101543.59;5288641;27;20011;-74
2021/12/30 08:49:28;;;;;;;8.13;1.60;;;;;;;14.06;100.00;101540.75;5289897;27;20022;-74
2021/12/30 08:51:58;;;;;;;9.55;2.10;;;;;;;14.05;100.00;101538.19;5286107;27;20388;-74
2021/12/30 08:54:31;;;;;;;6.10;1.75;;;;;;;14.07;100.00;101539.72;5293839;27;20237;-74
2021/12/30 08:57:04;;;;;;;4.88;1.50;;;;;;;14.05;100.00;101530.94;5287858;27;20021;-74
2021/12/30 08:59:36;;;;;;;5.68;2.10;;;;;;;14.10;100.00;101549.31;5289497;27;20019;-73
2021/12/30 09:02:07;;;;;;;8.63;2.13;;;;;;;14.14;100.00;101542.56;5290055;27;20019;-74
2021/12/30 09:04:41;;;;;;;11.77;4.32;;;;;;;14.17;100.00;101540.38;5294302;27;20050;-74
2021/12/30 09:07:13;;;;;;;10.88;3.15;;;;;;;14.16;100.00;101533.28;5289898;27;20127;-74
2021/12/30 09:09:46;;;;;;;176.32;69.65;;;;;;;14.18;100.00;101547.44;5294318;27;20399;-74
2021/12/30 09:12:18;;;;;;;119.78;50.20;;;;;;;14.20;100.00;101529.22;5285865;27;20019;-74
2021/12/30 09:14:48;;;;;;;8.90;3.45;;;;;;;14.23;100.00;101531.56;5288409;27;20018;-73
2021/12/30 09:17:19;;;;;;;7.97;2.55;;;;;;;14.28;100.00;101541.84;5291741;27;20026;-74
2021/12/30 09:19:49;;;;;;;12.25;4.13;;;;;;;14.31;100.00;101543.34;5285734;27;20092;-74
2021/12/30 09:22:20;;;;;;;12.77;2.92;;;;;;;14.33;100.00;101549.44;5292740;27;20023;-74
2021/12/30 09:24:50;;;;;;;10.02;2.75;;;;;;;14.28;100.00;101549.09;5289388;27;20332;-74
2021/12/30 09:27:21;;;;;;;9.70;2.88;;;;;;;14.28;100.00;101552.66;5292305;27;20030;-74
2021/12/30 09:29:52;;;;;;;11.35;2.65;;;;;;;14.24;100.00;101552.13;5288377;28;20152;-74
2021/12/30 09:32:22;;;;;;;12.02;2.97;;;;;;;14.22;100.00;101550.66;5292865;27;20054;-73
2021/12/30 09:34:53;;;;;;;9.07;3.53;;;;;;;14.24;100.00;101562.94;5286900;28;20023;-74
2021/12/30 09:37:24;;;;;;;11.07;2.60;;;;;;;14.28;100.00;101565.31;5292542;28;20027;-74
2021/12/30 09:39:55;;;;;;;16.40;4.60;;;;;;;14.29;100.00;101570.50;5289286;28;20020;-74
2021/12/30 09:42:26;;;;;;;11.07;3.22;;;;;;;14.30;100.00;101571.34;5290829;28;20019;-73
2021/12/30 09:44:56;;;;;;;11.05;3.45;;;;;;;14.28;100.00;101576.09;5289860;27;20552;-72
2021/12/30 09:47:27;;;;;;;10.00;3.47;;;;;;;14.29;100.00;101580.47;5298690;27;20397;-72
2021/12/30 09:49:58;;;;;;;13.13;3.40;;;;;;;14.22;100.00;101573.06;5288567;28;20023;-72
2021/12/30 09:52:28;;;;;;;12.70;3.92;;;;;;;14.24;100.00;101579.13;5285075;28;20024;-72
2021/12/30 09:54:59;;;;;;;11.00;3.60;;;;;;;14.29;100.00;101583.16;5283976;28;20038;-72
2021/12/30 09:57:29;;;;;;;15.25;3.45;;;;;;;14.28;100.00;101581.50;5282065;28;20102;-73
2021/12/30 10:00:00;;;;;;;12.70;4.22;;;;;;;14.26;100.00;101587.06;5289150;27;20414;-73
2021/12/30 10:02:31;;;;;;;17.10;4.18;;;;;;;14.33;100.00;101581.81;5295321;27;20430;-73
2021/12/30 10:05:23;;;;;;;14.60;4.82;;;;;;;14.35;100.00;101586.00;5292683;27;20101;-73
2021/12/30 10:08:15;;;;;;;13.23;4.07;;;;;;;14.43;100.00;101593.25;5292062;27;20034;-73
2021/12/30 10:10:50;;;;;;;10.05;3.88;;;;;;;14.48;100.00;101589.06;5290473;27;20107;-73
2021/12/30 10:13:25;;;;;;;12.00;4.33;;;;;;;14.47;100.00;101575.72;5291008;27;20418;-72
2021/12/30 10:15:58;;;;;;;12.18;3.88;;;;;;;14.54;100.00;101581.28;5295254;27;20318;-72
2021/12/30 10:18:50;;;;;;;10.52;3.92;;;;;;;14.57;100.00;101594.44;5297314;27;20027;-73
2021/12/30 10:21:35;;;;;;;10.68;3.78;;;;;;;14.58;100.00;101585.31;5290311;27;20123;-73
2021/12/30 10:24:10;;;;;;;12.93;3.85;;;;;;;14.60;100.00;101584.09;5300854;27;20538;-73
2021/12/30 10:26:57;;;;;;;10.63;4.10;;;;;;;14.63;100.00;101572.97;5295414;27;20029;-74
2021/12/30 10:29:41;;;;;;;11.23;3.35;;;;;;;14.64;100.00;101574.66;5297844;27;20054;-73
2021/12/30 10:32:14;;;;;;;10.10;3.13;;;;;;;14.72;100.00;101585.44;5289034;27;20030;-72
2021/12/30 10:35:21;;;;;;;11.65;4.05;;;;;;;14.69;100.00;101580.38;5298087;27;20026;-72
2021/12/30 10:38:01;;;;;;;9.40;4.13;;;;;;;14.73;100.00;101579.00;5295730;27;20024;-73
2021/12/30 10:40:32;;;;;;;6.32;3.55;;;;;;;14.69;100.00;101576.81;5293380;27;20048;-73
2021/12/30 10:43:36;;;;;;;9.07;3.40;;;;;;;14.65;100.00;101589.81;5294913;27;20019;-72
2021/12/30 10:46:28;;;;;;;6.88;3.20;;;;;;;14.73;100.00;101586.25;5288605;27;20162;-73
2021/12/30 10:48:59;;;;;;;11.52;4.20;;;;;;;14.67;100.00;101587.81;5293464;27;20377;-73
2021/12/30 10:51:50;;;;;;;14.00;4.38;;;;;;;14.60;100.00;101589.50;5287606;27;20053;-73
2021/12/30 10:54:25;;;;;;;6.70;3.47;;;;;;;14.60;100.00;101594.91;5290814;27;20389;-73
2021/12/30 10:57:08;;;;;;;11.25;3.20;;;;;;;14.61;100.00;101596.63;5283786;27;20276;-73
2021/12/30 10:59:43;;;;;;;9.35;3.45;;;;;;;14.58;100.00;101591.56;5290683;27;20030;-72
2021/12/30 11:02:16;;;;;;;11.10;3.60;;;;;;;14.57;100.00;101594.44;5286127;27;20024;-73
2021/12/30 11:04:53;;;;;;;7.85;3.40;;;;;;;14.58;100.00;101590.72;5291804;27;20024;-72
2021/12/30 11:07:27;;;;;;;10.25;3.25;;;;;;;14.61;100.00;101582.25;5290995;27;20024;-72
2021/12/30 11:10:00;;;;;;;7.53;2.33;;;;;;;14.59;100.00;101587.00;5291289;27;20083;-72
2021/12/30 11:12:33;;;;;;;7.93;3.10;;;;;;;14.60;100.00;101594.91;5295080;27;20018;-72
2021/12/30 11:15:18;;;;;;;12.57;3.28;;;;;;;14.65;100.00;101595.22;5292387;27;20019;-73
2021/12/30 11:17:49;;;;;;;7.15;2.83;;;;;;;14.67;100.00;101593.22;5296916;27;20031;-73
2021/12/30 11:20:20;;;;;;;12.00;3.53;;;;;;;14.69;100.00;101599.25;5287662;27;20038;-72
2021/12/30 11:22:51;;;;;;;13.40;4.22;;;;;;;14.72;100.00;101584.59;5293797;27;20007;-72
2021/12/30 11:25:21;;;;;;;7.03;3.28;;;;;;;14.71;100.00;101589.16;5288166;27;20443;-73
2021/12/30 11:27:52;;;;;;;13.13;3.40;;;;;;;14.83;100.00;101592.28;5284485;27;20077;-73
2021/12/30 11:30:23;;;;;;;14.60;3.55;;;;;;;14.91;100.00;101591.41;5287478;27;20039;-72
2021/12/30 11:32:53;;;;;;;10.85;3.88;;;;;;;14.97;100.00;101590.72;5291770;27;20454;-72
2021/12/30 11:35:26;;;;;;;8.20;3.63;;;;;;;15.02;100.00;101586.47;5290789;27;20076;-73
2021/12/30 11:37:57;;;;;;;14.02;5.18;;;;;;;15.05;100.00;101577.13;5298772;27;20099;-73
2021/12/30 11:40:28;;;;;;;12.18;6.80;;;;;;;15.01;100.00;101592.06;5285883;27;20035;-73